Time;durP1;ratioP1;P1;durP2;ratioP2;P2;SDS_P1;SDS_P2;PMS_P1;PMS_P2;Temp;Humidity;BMP_temperature;BMP_pressure;BME280_temperature;BME280_humidity;BME280_pressure;Samples;Min_cycle;Max_cycle;Signal;HPM_P1;HPM_P2
2022/05/22 00:01:02;;;;;;;19.80;13.20;;;;;;;28.04;48.92;101417.28;4163853;28;20041;-69
2022/05/22 00:03:09;;;;;;;21.25;11.70;;;;;;;27.97;48.65;101405.66;4165589;28;20037;-69
2022/05/22 00:05:25;;;;;;;22.55;12.95;;;;;;;28.05;48.60;101402.09;4165703;28;20551;-69
2022/05/22 00:07:26;;;;;;;17.30;12.55;;;;;;;28.04;48.86;101401.28;4165437;28;20041;-69
2022/05/22 00:09:28;;;;;;;18.35;11.95;;;;;;;28.04;48.85;101394.78;4165412;28;20037;-69
2022/05/22 00:11:30;;;;;;;18.73;12.98;;;;;;;28.02;49.22;101392.31;4165177;28;20436;-69
2022/05/22 00:13:31;;;;;;;16.77;12.05;;;;;;;28.05;48.69;101402.09;4164193;28;20118;-69
2022/05/22 00:15:32;;;;;;;20.42;13.05;;;;;;;28.04;49.12;101395.66;4165916;28;20041;-69
2022/05/22 00:17:37;;;;;;;18.88;13.00;;;;;;;28.04;48.87;101401.28;4165502;28;20615;-69
2022/05/22 00:19:39;;;;;;;20.35;12.07;;;;;;;28.05;48.79;101413.34;4165628;28;20095;-69
2022/05/22 00:21:43;;;;;;;19.63;13.43;;;;;;;28.05;48.72;101407.72;4165363;28;20091;-69
2022/05/22 00:23:45;;;;;;;20.70;12.45;;;;;;;28.03;48.92;101410.00;4165366;28;20429;-69
2022/05/22 00:25:47;;;;;;;17.75;13.13;;;;;;;28.02;49.02;101408.34;4166104;28;20091;-69
2022/05/22 00:27:52;;;;;;;17.10;12.93;;;;;;;28.05;49.01;101410.53;4165292;28;20068;-69
2022/05/22 00:29:54;;;;;;;23.75;13.45;;;;;;;27.84;48.87;101379.25;4163269;28;20084;-69
2022/05/22 00:32:13;;;;;;;22.67;13.80;;;;;;;28.05;48.73;101414.19;4166042;28;20064;-70
2022/05/22 00:34:16;;;;;;;18.88;13.13;;;;;;;28.04;48.79;101411.66;4165512;28;20049;-69
2022/05/22 00:36:17;;;;;;;18.83;13.30;;;;;;;28.06;48.78;101420.63;4165009;28;20100;-69
2022/05/22 00:38:19;;;;;;;19.38;13.80;;;;;;;28.06;49.02;101420.63;4165141;28;20045;-69
2022/05/22 00:40:20;;;;;;;19.52;13.15;;;;;;;28.06;48.95;101412.19;4164780;28;20041;-69
2022/05/22 00:42:23;;;;;;;20.23;13.50;;;;;;;28.06;48.95;101412.19;4165774;28;20079;-69
2022/05/22 00:44:25;;;;;;;18.17;14.15;;;;;;;28.03;48.92;101412.81;4165367;28;20049;-69
2022/05/22 00:46:29;;;;;;;21.55;13.73;;;;;;;28.07;48.84;101420.31;4165069;28;20118;-69
2022/05/22 00:48:32;;;;;;;19.73;13.70;;;;;;;28.06;48.90;101423.44;4165907;28;20432;-69
2022/05/22 00:50:33;;;;;;;16.35;13.75;;;;;;;28.07;48.98;101427.91;4163529;28;20042;-69
2022/05/22 00:52:57;;;;;;;18.17;13.57;;;;;;;28.04;48.87;101443.47;4164976;28;20092;-69
2022/05/22 00:55:16;;;;;;;18.00;13.52;;;;;;;28.08;48.57;101446.47;4165256;28;20041;-69
2022/05/22 00:57:29;;;;;;;19.15;13.65;;;;;;;28.07;48.76;101445.63;4164431;28;20111;-69
2022/05/22 00:59:48;;;;;;;17.42;13.48;;;;;;;28.02;48.82;101442.13;4164681;28;20034;-69
2022/05/22 01:01:52;;;;;;;17.75;13.93;;;;;;;28.00;48.63;101450.06;4164554;28;20033;-69
2022/05/22 01:03:55;;;;;;;17.02;13.68;;;;;;;28.09;48.87;101473.47;4164805;28;20096;-69
2022/05/22 01:06:06;;;;;;;16.48;13.05;;;;;;;28.03;48.95;101466.28;4164696;28;20045;-69
2022/05/22 01:08:09;;;;;;;16.40;14.32;;;;;;;28.03;48.67;101463.47;4164783;28;20084;-69
2022/05/22 01:10:11;;;;;;;16.25;13.13;;;;;;;28.09;48.95;101477.13;4160268;28;20045;-69
2022/05/22 01:12:21;;;;;;;18.40;14.27;;;;;;;28.07;48.80;101485.03;4164756;28;20037;-69
2022/05/22 01:14:22;;;;;;;15.48;13.38;;;;;;;28.10;48.95;101486.38;4164551;28;20041;-69
2022/05/22 01:16:30;;;;;;;20.20;13.68;;;;;;;28.08;48.79;101489.50;4164389;28;20041;-69
2022/05/22 01:18:44;;;;;;;19.67;14.57;;;;;;;28.08;48.64;101502.72;4164878;28;20041;-70
2022/05/22 01:20:50;;;;;;;18.48;12.93;;;;;;;28.09;48.84;101515.66;4164538;28;20084;-69
2022/05/22 01:23:25;;;;;;;19.23;13.05;;;;;;;28.06;48.74;101516.28;4164546;28;20111;-69
2022/05/22 01:25:29;;;;;;;18.02;14.10;;;;;;;28.11;48.94;101530.25;4160732;28;20041;-69
2022/05/22 01:27:31;;;;;;;18.53;13.90;;;;;;;28.11;48.75;101530.25;4164080;28;20087;-70
2022/05/22 01:29:33;;;;;;;17.08;13.10;;;;;;;28.11;48.90;101541.50;4164448;28;20034;-69
2022/05/22 01:31:34;;;;;;;16.00;13.32;;;;;;;28.10;48.78;101551.09;4164332;28;20041;-69
2022/05/22 01:33:38;;;;;;;15.18;13.57;;;;;;;28.00;48.88;101534.44;4164356;28;20045;-69
2022/05/22 01:35:39;;;;;;;15.23;12.18;;;;;;;28.04;48.64;101550.38;4163580;28;20038;-69
2022/05/22 01:37:41;;;;;;;15.88;12.70;;;;;;;28.10;48.55;101566.00;4164443;28;20046;-70
2022/05/22 01:39:43;;;;;;;16.10;13.80;;;;;;;28.11;48.94;101570.47;4164282;28;20041;-69
2022/05/22 01:41:44;;;;;;;13.73;12.27;;;;;;;28.10;49.03;101584.84;4164527;28;20535;-69
2022/05/22 01:43:45;;;;;;;14.23;12.73;;;;;;;28.11;48.89;101584.53;4164905;28;20087;-69
2022/05/22 01:45:54;;;;;;;17.25;13.07;;;;;;;28.10;48.87;101585.69;4164533;28;20476;-69
2022/05/22 01:47:56;;;;;;;16.48;13.48;;;;;;;28.09;48.92;101591.63;4163995;28;20130;-69
2022/05/22 01:49:57;;;;;;;15.50;13.20;;;;;;;28.11;48.74;101604.22;4164104;28;20103;-69
2022/05/22 01:51:59;;;;;;;14.52;12.13;;;;;;;28.12;48.93;101605.88;4164129;28;20103;-69
2022/05/22 01:54:01;;;;;;;16.05;12.63;;;;;;;28.12;49.00;101599.44;4164228;28;20440;-69
2022/05/22 01:56:03;;;;;;;15.90;12.55;;;;;;;28.12;48.80;101605.06;4164125;28;20033;-69
2022/05/22 01:58:07;;;;;;;15.35;12.70;;;;;;;28.12;48.94;101607.88;4164557;28;20041;-69
2022/05/22 02:00:13;;;;;;;17.33;12.98;;;;;;;28.12;48.86;101605.88;4164403;28;20045;-69
2022/05/22 02:02:20;;;;;;;15.10;13.05;;;;;;;28.11;49.05;101604.22;4147258;28;20501;-69
2022/05/22 02:04:22;;;;;;;17.45;12.50;;;;;;;28.14;48.91;101607.56;4164471;28;20095;-69
2022/05/22 02:06:23;;;;;;;14.45;12.55;;;;;;;28.12;48.95;101608.69;4163858;28;20037;-69
2022/05/22 02:08:26;;;;;;;16.38;12.52;;;;;;;28.09;49.18;101608.53;4164558;28;20041;-69
2022/05/22 02:10:31;;;;;;;14.63;12.40;;;;;;;28.08;48.88;101601.19;4164387;28;20099;-69
2022/05/22 02:12:32;;;;;;;14.77;13.20;;;;;;;28.14;48.85;101613.19;4164103;28;20045;-69
2022/05/22 02:14:34;;;;;;;16.70;13.52;;;;;;;28.11;49.02;101606.22;4164371;28;20042;-69
2022/05/22 02:16:38;;;;;;;13.95;12.45;;;;;;;28.01;48.79;101598.00;4164723;28;20037;-69
2022/05/22 02:18:39;;;;;;;14.93;12.77;;;;;;;28.12;48.82;101617.13;4164572;28;20037;-69
2022/05/22 02:20:40;;;;;;;14.65;12.60;;;;;;;28.14;48.95;101616.03;4166491;28;20440;-69
2022/05/22 02:22:48;;;;;;;14.38;12.60;;;;;;;28.14;48.89;101619.66;4167299;28;20107;-69
2022/05/22 02:24:50;;;;;;;15.40;12.65;;;;;;;28.09;48.78;101623.41;4168219;28;20092;-69
2022/05/22 02:26:54;;;;;;;13.57;12.15;;;;;;;28.13;48.81;101634.84;4167039;28;20428;-69
2022/05/22 02:28:55;;;;;;;13.83;12.43;;;;;;;28.14;48.79;101636.53;4167480;28;20469;-69
2022/05/22 02:31:00;;;;;;;14.32;11.75;;;;;;;28.13;48.59;101646.09;4168278;28;20064;-69
2022/05/22 02:33:02;;;;;;;;;;;;;;;28.12;48.87;101650.91;4168781;28;20022;-69
2022/05/22 02:35:06;;;;;;;14.07;12.68;;;;;;;28.18;48.67;101654.47;4168122;28;19959;-69
2022/05/22 02:37:07;;;;;;;14.48;12.80;;;;;;;28.19;48.55;101667.38;4166973;28;20041;-69
2022/05/22 02:39:09;;;;;;;15.57;12.20;;;;;;;28.19;48.68;101663.75;4167190;28;20046;-69
2022/05/22 02:41:17;;;;;;;17.15;12.45;;;;;;;28.17;48.69;101664.03;4167393;28;20101;-69
2022/05/22 02:43:19;;;;;;;14.45;12.43;;;;;;;28.14;49.06;101670.31;4167274;28;20068;-69
2022/05/22 02:45:26;;;;;;;15.15;12.55;;;;;;;28.16;48.91;101668.00;4167117;28;20049;-69
2022/05/22 02:47:27;;;;;;;18.20;12.95;;;;;;;28.16;48.90;101679.25;4166702;28;20046;-69
2022/05/22 02:49:29;;;;;;;15.00;13.43;;;;;;;28.16;48.84;101673.63;4167299;28;20041;-69
2022/05/22 02:51:30;;;;;;;14.43;11.65;;;;;;;28.16;48.87;101679.25;4166617;28;20080;-69
2022/05/22 02:53:33;;;;;;;13.25;11.68;;;;;;;28.09;48.89;101665.63;4167303;28;20501;-69
2022/05/22 02:55:35;;;;;;;13.40;12.00;;;;;;;28.07;48.93;101665.09;4166737;28;20179;-69
2022/05/22 02:57:40;;;;;;;13.30;12.00;;;;;;;28.16;48.79;101678.44;4166404;28;20087;-69
2022/05/22 02:59:41;;;;;;;12.55;11.32;;;;;;;28.15;48.68;101676.78;4166798;28;20041;-69
2022/05/22 03:01:43;;;;;;;13.43;12.02;;;;;;;28.12;48.75;101666.97;4167540;28;20528;-69
2022/05/22 03:03:44;;;;;;;13.93;12.13;;;;;;;28.14;49.01;101675.94;4167005;28;20162;-69
2022/05/22 03:08:05;;;;;;;13.05;11.82;;;;;;;28.13;48.78;101677.06;4167835;28;20527;-69
2022/05/22 03:10:12;;;;;;;12.93;11.52;;;;;;;28.14;48.71;101687.19;4166774;28;20045;-69
2022/05/22 03:12:22;;;;;;;13.10;11.75;;;;;;;28.15;48.95;101700.09;4167007;28;20414;-69
2022/05/22 03:14:26;;;;;;;14.02;11.77;;;;;;;28.15;48.98;101705.75;4168958;28;20072;-69
2022/05/22 03:16:27;;;;;;;13.35;11.70;;;;;;;28.15;49.02;101705.75;4168166;28;20041;-69
2022/05/22 03:18:28;;;;;;;12.75;11.45;;;;;;;28.11;49.01;101687.81;4170758;28;20025;-69
2022/05/22 03:20:30;;;;;;;13.38;11.18;;;;;;;28.13;48.76;101691.13;4167370;28;20056;-69
2022/05/22 03:22:35;;;;;;;11.75;10.65;;;;;;;28.16;48.94;101692.50;4167161;28;20049;-69
2022/05/22 03:24:37;;;;;;;13.48;12.07;;;;;;;28.16;48.72;101696.16;4168156;28;20087;-69
2022/05/22 03:26:38;;;;;;;12.15;10.85;;;;;;;28.16;48.91;101696.16;4166635;28;20041;-69
2022/05/22 03:28:45;;;;;;;13.98;12.05;;;;;;;28.08;48.77;101688.41;4169093;28;20103;-69
2022/05/22 03:30:50;;;;;;;13.05;11.70;;;;;;;28.17;48.92;101708.22;4167617;28;20037;-69
2022/05/22 03:32:54;;;;;;;11.73;10.52;;;;;;;28.16;48.77;101698.97;4167987;28;20029;-69
2022/05/22 03:34:59;;;;;;;13.77;11.77;;;;;;;28.12;48.88;101695.94;4166866;28;20436;-69
2022/05/22 03:37:01;;;;;;;15.75;12.00;;;;;;;28.17;48.78;101709.06;4166741;28;20072;-69
2022/05/22 03:39:06;;;;;;;13.10;11.70;;;;;;;28.18;48.80;101696.69;4166689;28;20045;-69
2022/05/22 03:41:07;;;;;;;15.13;12.15;;;;;;;28.17;48.97;101691.34;4168300;28;20037;-69
2022/05/22 03:43:08;;;;;;;11.73;10.52;;;;;;;28.16;49.07;101679.25;4167612;28;20427;-69
2022/05/22 03:45:11;;;;;;;13.38;12.07;;;;;;;28.18;49.08;101678.94;4166369;28;20037;-69
2022/05/22 03:47:12;;;;;;;12.88;11.57;;;;;;;28.17;48.98;101669.66;4157608;28;20053;-69
2022/05/22 03:49:13;;;;;;;13.52;11.60;;;;;;;28.10;48.84;101663.63;4167733;28;20404;-70
2022/05/22 03:51:15;;;;;;;14.40;11.90;;;;;;;28.18;48.90;101673.31;4166240;28;20116;-69
2022/05/22 03:53:16;;;;;;;13.05;11.65;;;;;;;28.04;48.85;101648.84;4169224;28;20041;-68
2022/05/22 03:55:19;;;;;;;13.10;10.88;;;;;;;28.16;48.86;101662.38;4170317;28;20544;-69
2022/05/22 03:57:20;;;;;;;11.90;10.68;;;;;;;28.12;48.94;101650.06;4170515;28;20037;-68
2022/05/22 03:59:22;;;;;;;11.75;10.55;;;;;;;28.16;48.80;101651.13;4170008;28;20041;-68
2022/05/22 04:01:29;;;;;;;12.65;11.35;;;;;;;28.16;48.81;101639.88;4170152;28;20041;-65
2022/05/22 04:03:30;;;;;;;12.10;10.88;;;;;;;28.18;49.00;101631.09;4167320;28;20362;-69
2022/05/22 04:05:35;;;;;;;13.18;11.82;;;;;;;28.18;48.71;101633.91;4167502;28;20038;-68
2022/05/22 04:07:41;;;;;;;12.35;11.05;;;;;;;28.17;48.79;101624.63;4166473;28;20037;-71
2022/05/22 04:09:43;;;;;;;12.80;11.50;;;;;;;28.14;48.92;101619.66;4166971;28;20366;-69
2022/05/22 04:11:44;;;;;;;12.63;11.32;;;;;;;28.19;48.75;101615.91;4166336;28;20034;-69
2022/05/22 04:13:47;;;;;;;12.10;10.80;;;;;;;28.18;49.04;101611.41;4166644;28;20436;-69
2022/05/22 04:15:48;;;;;;;12.95;11.65;;;;;;;28.19;48.69;101604.66;4166876;28;20026;-69
2022/05/22 04:17:52;;;;;;;12.23;11.02;;;;;;;28.18;48.89;101606.63;4167140;28;20119;-69
2022/05/22 04:19:56;;;;;;;11.77;10.67;;;;;;;27.92;49.07;101554.88;4166457;28;20033;-68
2022/05/22 04:21:58;;;;;;;12.40;11.10;;;;;;;28.19;48.91;101593.38;4166866;28;20106;-68
2022/05/22 04:26:20;;;;;;;11.77;10.68;;;;;;;28.16;48.94;101583.59;4166239;28;20083;-68
2022/05/22 04:28:25;;;;;;;13.07;11.77;;;;;;;28.17;48.63;101585.25;4165364;28;20111;-68
2022/05/22 04:30:26;;;;;;;11.68;10.57;;;;;;;28.19;48.64;101594.22;4166206;28;20477;-69
2022/05/22 04:32:28;;;;;;;11.95;10.63;;;;;;;28.18;49.04;101594.50;4168123;28;20083;-69
2022/05/22 04:34:30;;;;;;;12.55;11.25;;;;;;;28.19;48.74;101596.22;4148480;28;20041;-69
2022/05/22 04:36:31;;;;;;;12.23;11.02;;;;;;;28.18;48.85;101605.78;4183860;28;20049;-68
2022/05/22 04:38:33;;;;;;;12.30;11.10;;;;;;;28.18;49.04;101603.81;4183969;28;20041;-69
2022/05/22 04:40:34;;;;;;;12.55;11.25;;;;;;;28.18;48.84;101603.81;4184151;28;20044;-69
2022/05/22 04:42:38;;;;;;;12.82;11.52;;;;;;;28.19;48.84;101599.84;4182747;28;20098;-69
2022/05/22 04:44:40;;;;;;;12.10;10.68;;;;;;;28.16;48.72;101603.28;4181693;28;20087;-69
2022/05/22 04:46:42;;;;;;;12.73;11.43;;;;;;;28.11;49.16;101589.31;4180763;28;20102;-69
2022/05/22 04:48:46;;;;;;;12.55;11.30;;;;;;;28.19;48.75;101601.84;4182391;28;20045;-70
2022/05/22 04:50:51;;;;;;;12.65;11.35;;;;;;;28.19;49.03;101605.47;4184189;28;20029;-69
2022/05/22 04:52:54;;;;;;;12.15;11.00;;;;;;;28.16;49.07;101600.47;4179378;28;20423;-68
2022/05/22 04:54:58;;;;;;;12.10;10.90;;;;;;;28.17;48.73;101607.75;4165267;28;20037;-69
2022/05/22 04:57:01;;;;;;;13.03;11.37;;;;;;;28.18;48.94;101606.63;4182683;28;20079;-69
2022/05/22 04:59:02;;;;;;;12.13;10.63;;;;;;;28.16;49.31;101630.59;4177902;28;20083;-67
2022/05/22 05:01:06;;;;;;;12.85;11.07;;;;;;;28.18;48.99;101648.84;4184643;28;20155;-69
2022/05/22 05:03:07;;;;;;;12.85;11.55;;;;;;;28.17;48.97;101635.91;4181671;28;20029;-69
2022/05/22 05:05:09;;;;;;;12.30;11.10;;;;;;;28.20;48.92;101643.72;4170639;28;20103;-68
2022/05/22 05:07:10;;;;;;;12.27;11.07;;;;;;;28.20;48.95;101646.53;4173837;28;20033;-68
2022/05/22 05:09:14;;;;;;;11.52;10.43;;;;;;;28.19;49.00;101633.63;4165631;28;20045;-68
2022/05/22 05:11:16;;;;;;;11.85;10.70;;;;;;;28.20;48.77;101620.38;4170481;28;20419;-68
2022/05/22 05:13:18;;;;;;;12.27;11.07;;;;;;;28.20;48.78;101628.81;4178358;28;20459;-68
2022/05/22 05:15:23;;;;;;;13.07;11.68;;;;;;;28.19;48.78;101629.97;4165810;28;20041;-69
2022/05/22 05:17:24;;;;;;;11.95;10.75;;;;;;;28.19;48.99;101615.91;4170333;28;20050;-70
2022/05/22 05:19:26;;;;;;;13.80;11.63;;;;;;;28.19;49.07;101611.09;4176125;28;20033;-68
2022/05/22 05:21:28;;;;;;;12.15;10.93;;;;;;;28.11;48.95;101597.78;4182795;28;20032;-69
2022/05/22 05:23:29;;;;;;;11.95;10.85;;;;;;;28.20;48.82;101611.94;4177753;28;20542;-68
2022/05/22 05:25:31;;;;;;;12.75;10.90;;;;;;;28.19;48.63;101613.91;4148623;28;20030;-68
2022/05/22 05:27:35;;;;;;;14.02;11.20;;;;;;;28.20;48.82;101609.94;4164986;28;20453;-69
2022/05/22 05:29:37;;;;;;;12.32;11.13;;;;;;;28.21;48.85;101616.41;4170948;28;20098;-67
2022/05/22 05:31:38;;;;;;;11.90;10.77;;;;;;;28.19;48.68;101611.09;4181491;28;20107;-68
2022/05/22 05:33:39;;;;;;;12.02;10.90;;;;;;;28.19;48.79;101605.47;4169729;28;20049;-68
2022/05/22 05:35:41;;;;;;;13.20;11.23;;;;;;;28.12;48.96;101605.06;4176399;28;20111;-68
2022/05/22 05:37:49;;;;;;;12.68;11.38;;;;;;;28.21;49.06;101610.78;4165062;28;20091;-68
2022/05/22 05:39:50;;;;;;;12.20;10.55;;;;;;;28.14;48.95;101597.16;4164447;28;20041;-67
2022/05/22 05:41:58;;;;;;;12.82;10.73;;;;;;;28.21;48.64;101611.59;4164491;28;20080;-70
2022/05/22 05:44:01;;;;;;;13.23;10.68;;;;;;;28.18;48.90;101606.63;4159692;28;20045;-69
2022/05/22 05:46:03;;;;;;;12.57;10.65;;;;;;;28.21;48.50;101602.34;4178779;28;20366;-70
2022/05/22 05:48:04;;;;;;;12.52;10.55;;;;;;;28.22;48.84;101598.38;4177853;28;20025;-69
2022/05/22 05:50:07;;;;;;;14.55;10.38;;;;;;;28.12;49.01;101589.00;4163312;28;20111;-69
2022/05/22 05:52:08;;;;;;;16.50;10.55;;;;;;;28.21;48.91;101605.97;4164853;28;20056;-68
2022/05/22 05:54:13;;;;;;;12.93;10.52;;;;;;;28.21;48.50;101597.53;4164237;28;20041;-69
2022/05/22 05:56:14;;;;;;;12.80;10.68;;;;;;;28.17;49.00;101590.03;4180127;28;20099;-69
2022/05/22 05:58:16;;;;;;;13.23;10.35;;;;;;;28.20;48.83;101593.06;4175980;28;20436;-69
2022/05/22 06:00:21;;;;;;;19.63;10.68;;;;;;;28.22;48.80;101592.75;4164404;28;20424;-70
2022/05/22 06:02:25;;;;;;;15.32;11.10;;;;;;;28.21;48.94;101591.91;4164804;28;20037;-69
2022/05/22 06:04:30;;;;;;;16.88;10.90;;;;;;;28.22;48.97;101582.31;4177271;28;20041;-69
2022/05/22 06:06:31;;;;;;;11.32;10.13;;;;;;;28.18;49.03;101572.88;4179358;28;20036;-69
2022/05/22 06:08:33;;;;;;;18.98;10.65;;;;;;;28.23;49.00;101589.63;4180043;28;20699;-69
2022/05/22 06:10:37;;;;;;;15.38;9.98;;;;;;;28.23;49.01;101572.75;4182642;28;20469;-68
2022/05/22 06:12:39;;;;;;;14.30;11.07;;;;;;;28.18;49.01;101561.59;4173523;28;20045;-69
2022/05/22 06:14:41;;;;;;;12.52;10.57;;;;;;;28.14;49.30;101552.13;4164436;28;20099;-68
2022/05/22 06:16:43;;;;;;;14.05;10.27;;;;;;;28.23;48.98;101550.22;4163982;28;20457;-68
2022/05/22 06:18:44;;;;;;;12.45;9.65;;;;;;;28.23;48.84;101555.88;4179083;28;20075;-68
2022/05/22 06:20:46;;;;;;;12.60;10.82;;;;;;;28.19;49.31;101543.56;4180996;28;20103;-68
2022/05/22 06:22:53;;;;;;;14.20;10.95;;;;;;;28.23;49.01;101550.22;4180138;28;20071;-68
2022/05/22 06:24:57;;;;;;;13.30;10.63;;;;;;;28.22;49.21;101548.53;4175258;28;20053;-68
2022/05/22 06:26:59;;;;;;;14.20;10.45;;;;;;;28.24;49.25;101554.72;4178456;28;20037;-68
2022/05/22 06:29:03;;;;;;;13.85;10.95;;;;;;;28.24;49.13;101554.72;4178606;28;20056;-69
2022/05/22 06:31:08;;;;;;;14.70;11.75;;;;;;;28.23;49.08;101547.41;4180343;28;20098;-68
2022/05/22 06:33:16;;;;;;;14.63;10.30;;;;;;;28.22;49.32;101542.91;4178996;28;20029;-69
2022/05/22 06:35:17;;;;;;;14.70;11.13;;;;;;;28.24;49.41;101535.00;4180682;28;20554;-68
2022/05/22 06:37:22;;;;;;;13.55;11.32;;;;;;;28.25;49.15;101525.41;4179345;28;20045;-69
2022/05/22 06:41:42;;;;;;;11.60;10.40;;;;;;;28.29;49.12;101520.81;4168371;28;20352;-69
2022/05/22 06:43:46;;;;;;;15.18;11.05;;;;;;;28.28;48.93;101519.16;4163818;28;20033;-69
2022/05/22 06:45:50;;;;;;;13.80;10.88;;;;;;;28.28;49.10;101519.16;4163988;28;20049;-69
2022/05/22 06:47:52;;;;;;;;;;;;;;;28.26;49.25;101504.56;4170703;28;20049;-69
2022/05/22 06:49:57;;;;;;;14.13;11.00;;;;;;;28.30;49.16;101499.94;4180551;28;19913;-69
2022/05/22 06:51:58;;;;;;;12.95;10.45;;;;;;;28.31;49.19;101501.59;4163269;28;20091;-69
2022/05/22 06:54:00;;;;;;;12.02;10.82;;;;;;;28.29;49.50;101501.09;4165175;28;20083;-68
2022/05/22 06:56:01;;;;;;;13.23;10.38;;;;;;;28.28;49.13;101496.63;4164867;28;20029;-68
2022/05/22 06:58:03;;;;;;;13.13;10.95;;;;;;;28.28;49.61;101495.81;4164276;28;20503;-68
2022/05/22 07:00:07;;;;;;;12.73;10.30;;;;;;;28.25;49.57;101490.81;4166015;28;20033;-68
2022/05/22 07:02:08;;;;;;;11.90;10.73;;;;;;;28.20;49.46;101477.69;4169642;28;20025;-68
2022/05/22 07:04:10;;;;;;;13.90;10.93;;;;;;;28.26;49.59;101486.84;4176758;28;20419;-68
2022/05/22 07:06:20;;;;;;;14.35;10.73;;;;;;;28.26;49.38;101482.03;4180909;28;20059;-68
2022/05/22 07:08:22;;;;;;;11.93;10.48;;;;;;;28.27;49.38;101486.53;4184111;28;20076;-67
2022/05/22 07:11:38;;;;;;;12.25;10.48;;;;;;;28.27;49.59;101482.88;4179125;28;20046;-68
2022/05/22 07:12:47;;;;;;;13.18;10.57;;;;;;;28.23;49.47;101477.06;4169633;28;20539;-67
2022/05/22 07:14:52;;;;;;;12.30;10.57;;;;;;;28.26;49.65;101490.47;4171074;28;20033;-68
2022/05/22 07:16:54;;;;;;;12.95;10.45;;;;;;;28.28;49.65;101495.81;4183625;28;20356;-68
2022/05/22 07:18:56;;;;;;;11.88;10.68;;;;;;;28.25;49.32;101479.56;4182675;28;20095;-68
2022/05/22 07:20:57;;;;;;;10.35;9.32;;;;;;;28.28;49.23;101484.56;4183982;28;20079;-67
2022/05/22 07:23:04;;;;;;;12.75;10.68;;;;;;;28.23;49.32;101479.88;4183520;28;20459;-68
2022/05/22 07:25:06;;;;;;;12.75;10.95;;;;;;;28.29;49.88;101492.66;4182368;28;20045;-68
2022/05/22 07:27:07;;;;;;;12.13;10.90;;;;;;;28.26;49.63;101484.03;4184599;28;20041;-66
2022/05/22 07:29:09;;;;;;;11.30;10.20;;;;;;;28.28;49.81;101491.00;4182484;28;20037;-67
2022/05/22 07:31:15;;;;;;;11.18;10.05;;;;;;;28.27;49.29;101482.88;4165852;28;20033;-67
2022/05/22 07:33:17;;;;;;;11.90;10.70;;;;;;;28.23;49.50;101479.06;4182049;28;20102;-70
2022/05/22 07:35:26;;;;;;;11.23;10.10;;;;;;;28.28;49.47;101491.00;4183970;28;20029;-68
2022/05/22 07:37:27;;;;;;;13.23;11.07;;;;;;;28.28;49.42;101478.94;4182705;28;20037;-67
2022/05/22 07:39:29;;;;;;;12.25;11.05;;;;;;;28.29;49.75;101486.22;4169860;28;20046;-67
2022/05/22 07:41:31;;;;;;;11.38;10.18;;;;;;;28.28;49.26;101478.94;4167423;28;20046;-68
2022/05/22 07:43:32;;;;;;;13.30;10.70;;;;;;;28.22;49.54;101463.28;4166229;28;20095;-69
2022/05/22 07:45:34;;;;;;;11.63;10.45;;;;;;;28.27;50.00;101475.28;4167964;28;20033;-68
2022/05/22 07:47:41;;;;;;;11.55;10.43;;;;;;;28.29;49.38;101469.31;4168048;28;20033;-70
2022/05/22 07:52:10;;;;;;;12.10;10.93;;;;;;;28.28;49.75;101454.41;4170449;28;20084;-69
2022/05/22 07:54:14;;;;;;;11.57;10.38;;;;;;;28.29;49.91;101458.91;4183913;28;20045;-69
2022/05/22 07:56:16;;;;;;;12.80;11.00;;;;;;;28.25;49.97;101446.59;4178534;28;20049;-69
2022/05/22 07:58:19;;;;;;;12.98;10.77;;;;;;;28.29;49.69;101455.25;4149249;28;20501;-68
2022/05/22 08:00:21;;;;;;;13.38;10.88;;;;;;;28.29;49.70;101452.44;4166088;28;20554;-69
2022/05/22 08:02:22;;;;;;;11.68;10.48;;;;;;;28.26;49.78;101441.81;4166815;28;20049;-68
2022/05/22 08:04:24;;;;;;;12.32;10.27;;;;;;;28.28;49.71;101439.53;4169295;28;20037;-69
2022/05/22 08:06:25;;;;;;;12.70;10.88;;;;;;;28.29;49.77;101442.00;4164611;28;20136;-69
2022/05/22 08:08:32;;;;;;;12.02;10.82;;;;;;;28.28;49.75;101434.72;4182085;28;20099;-69
2022/05/22 08:10:36;;;;;;;11.70;10.60;;;;;;;28.30;49.94;101425.94;4180643;28;20467;-69
2022/05/22 08:12:46;;;;;;;11.68;10.50;;;;;;;28.29;49.94;101436.38;4182061;28;20423;-69
2022/05/22 08:14:53;;;;;;;12.30;10.85;;;;;;;28.24;49.78;101433.69;4180549;28;20476;-69
2022/05/22 08:16:54;;;;;;;11.63;9.75;;;;;;;28.30;49.89;101448.47;4181598;28;20179;-69
2022/05/22 08:18:56;;;;;;;11.30;10.10;;;;;;;28.30;49.74;101457.72;4181760;28;20048;-69
2022/05/22 08:20:57;;;;;;;11.77;10.65;;;;;;;28.28;49.69;101460.06;4179786;28;20056;-69
2022/05/22 08:23:00;;;;;;;11.63;10.52;;;;;;;28.29;49.70;101458.91;4181805;28;20155;-69
2022/05/22 08:25:04;;;;;;;14.32;10.85;;;;;;;28.30;49.81;101459.72;4180315;28;20037;-69
2022/05/22 08:27:08;;;;;;;11.45;10.35;;;;;;;28.30;49.68;101471.81;4181254;28;20087;-69
2022/05/22 08:29:09;;;;;;;11.02;9.93;;;;;;;28.30;49.90;101497.13;4178643;28;20044;-69
2022/05/22 08:31:11;;;;;;;11.00;9.90;;;;;;;28.30;49.68;101522.47;4181957;28;20079;-69
2022/05/22 08:33:13;;;;;;;10.90;9.93;;;;;;;28.30;49.85;101530.91;4180693;28;20110;-69
2022/05/22 08:35:18;;;;;;;12.95;10.27;;;;;;;28.30;49.56;101530.91;4182104;28;20186;-69
2022/05/22 08:37:20;;;;;;;12.27;11.07;;;;;;;28.30;49.94;101524.44;4181583;28;20040;-69
2022/05/22 08:39:21;;;;;;;11.90;10.70;;;;;;;28.31;49.77;101523.28;4180905;28;20107;-69
2022/05/22 08:41:31;;;;;;;14.25;10.43;;;;;;;28.28;49.68;101519.16;4182507;28;20079;-69
2022/05/22 08:43:44;;;;;;;11.48;10.27;;;;;;;28.31;49.72;101524.13;4180315;28;20484;-69
2022/05/22 08:46:02;;;;;;;10.93;9.93;;;;;;;28.31;49.61;101529.75;4181429;28;20099;-69
2022/05/22 08:48:08;;;;;;;11.65;10.45;;;;;;;28.32;49.87;101531.44;4171904;28;20049;-68
2022/05/22 08:50:11;;;;;;;10.52;9.52;;;;;;;28.33;49.84;101533.09;4165738;28;20033;-69
2022/05/22 08:52:49;;;;;;;11.70;10.60;;;;;;;28.23;49.73;101519.28;4165677;28;20038;-69
2022/05/22 08:55:14;;;;;;;12.18;11.02;;;;;;;28.34;50.12;101528.31;4181504;28;20045;-69
2022/05/22 08:59:55;;;;;;;12.40;11.18;;;;;;;28.33;49.81;101518.19;4182181;28;20091;-67
2022/05/22 09:02:31;;;;;;;11.38;10.18;;;;;;;28.31;49.65;101524.13;4181151;28;20095;-69
2022/05/22 09:04:41;;;;;;;11.25;10.15;;;;;;;28.33;49.63;101516.22;4180802;28;20049;-69
2022/05/22 09:07:01;;;;;;;11.27;10.18;;;;;;;28.33;49.96;101513.41;4181845;28;20078;-69
2022/05/22 09:09:04;;;;;;;11.50;10.35;;;;;;;28.34;50.07;101517.91;4179431;28;20079;-69
2022/05/22 09:11:36;;;;;;;11.52;10.43;;;;;;;28.33;50.06;101519.03;4181343;28;20036;-69
2022/05/22 09:13:50;;;;;;;13.07;10.68;;;;;;;28.34;49.91;101511.41;4169875;28;20431;-69
2022/05/22 09:16:20;;;;;;;12.35;9.75;;;;;;;28.32;49.52;101508.94;4169763;28;20124;-69
2022/05/22 09:18:40;;;;;;;11.52;10.30;;;;;;;28.33;49.59;101502.16;4181387;28;20074;-69
2022/05/22 09:20:56;;;;;;;10.82;9.70;;;;;;;28.33;49.86;101519.03;4176238;28;20508;-68
2022/05/22 09:23:15;;;;;;;11.23;10.10;;;;;;;28.19;49.97;101500.53;4165017;28;20485;-69
2022/05/22 09:25:28;;;;;;;11.18;10.13;;;;;;;28.33;50.03;101513.41;4164332;28;20118;-69
2022/05/22 09:28:01;;;;;;;11.00;10.00;;;;;;;28.33;50.17;101510.59;4164511;28;20103;-69
2022/05/22 09:30:06;;;;;;;11.75;10.55;;;;;;;28.32;49.74;101508.94;4143745;28;20480;-69
2022/05/22 09:32:08;;;;;;;13.57;10.50;;;;;;;28.32;50.10;101520.19;4178747;28;20045;-69
2022/05/22 09:34:53;;;;;;;12.82;10.93;;;;;;;28.28;50.00;101519.16;4179312;28;20095;-69
2022/05/22 09:37:13;;;;;;;11.23;10.13;;;;;;;28.33;49.94;101515.38;4097871;29;20086;-70
2022/05/22 09:39:20;;;;;;;11.10;10.00;;;;;;;28.32;49.79;101514.56;4154293;28;20448;-69